sensor_id;sensor_type;location;lat;lon;timestamp;pressure;altitude;pressure_sealevel;temperature;humidity
49063;BME280;34876;51.464;-0.150;2023-02-18T00:00:17;102222.11;;;18.42;47.94
49063;BME280;34876;51.464;-0.150;2023-02-18T00:02:46;102217.62;;;18.40;48.23
49063;BME280;34876;51.464;-0.150;2023-02-18T00:05:17;102221.92;;;18.32;48.71
49063;BME280;34876;51.464;-0.150;2023-02-18T00:07:45;102220.85;;;18.39;48.52
49063;BME280;34876;51.464;-0.150;2023-02-18T00:10:15;102227.73;;;18.15;48.96
49063;BME280;34876;51.464;-0.150;2023-02-18T00:12:45;102222.05;;;18.30;48.73
49063;BME280;34876;51.464;-0.150;2023-02-18T00:15:15;102216.12;;;17.95;49.93
49063;BME280;34876;51.464;-0.150;2023-02-18T00:17:44;102215.63;;;18.34;48.95
49063;BME280;34876;51.464;-0.150;2023-02-18T00:20:14;102216.23;;;18.40;48.28
49063;BME280;34876;51.464;-0.150;2023-02-18T00:22:44;102215.25;;;18.41;48.27
49063;BME280;34876;51.464;-0.150;2023-02-18T00:25:14;102214.76;;;18.42;48.37
49063;BME280;34876;51.464;-0.150;2023-02-18T00:27:42;102212.47;;;18.40;48.52
49063;BME280;34876;51.464;-0.150;2023-02-18T00:30:12;102213.64;;;18.42;48.28
49063;BME280;34876;51.464;-0.150;2023-02-18T00:32:42;102210.68;;;18.38;48.60
49063;BME280;34876;51.464;-0.150;2023-02-18T00:35:12;102207.89;;;18.35;48.83
49063;BME280;34876;51.464;-0.150;2023-02-18T00:37:42;102208.46;;;18.45;48.39
49063;BME280;34876;51.464;-0.150;2023-02-18T00:40:12;102205.38;;;18.38;49.19
49063;BME280;34876;51.464;-0.150;2023-02-18T00:42:42;102202.55;;;18.44;48.49
49063;BME280;34876;51.464;-0.150;2023-02-18T00:45:12;102201.54;;;18.37;48.89
49063;BME280;34876;51.464;-0.150;2023-02-18T00:47:42;102191.74;;;18.42;48.76
49063;BME280;34876;51.464;-0.150;2023-02-18T00:50:12;102187.86;;;18.27;49.00
49063;BME280;34876;51.464;-0.150;2023-02-18T00:52:42;102190.63;;;18.34;48.82
49063;BME280;34876;51.464;-0.150;2023-02-18T00:55:12;102184.88;;;18.40;48.54
49063;BME280;34876;51.464;-0.150;2023-02-18T00:57:42;102185.25;;;18.28;48.95
49063;BME280;34876;51.464;-0.150;2023-02-18T01:00:12;102189.29;;;18.40;48.48
49063;BME280;34876;51.464;-0.150;2023-02-18T01:03:40;102187.21;;;18.11;49.33
49063;BME280;34876;51.464;-0.150;2023-02-18T01:06:11;102184.06;;;18.34;50.51
49063;BME280;34876;51.464;-0.150;2023-02-18T01:08:41;102183.32;;;18.39;48.25
49063;BME280;34876;51.464;-0.150;2023-02-18T01:11:11;102180.31;;;18.41;48.39
49063;BME280;34876;51.464;-0.150;2023-02-18T01:13:40;102181.80;;;18.22;49.01
49063;BME280;34876;51.464;-0.150;2023-02-18T01:16:10;102172.38;;;18.43;48.25
49063;BME280;34876;51.464;-0.150;2023-02-18T01:18:40;102168.26;;;18.41;48.41
49063;BME280;34876;51.464;-0.150;2023-02-18T01:21:09;102164.26;;;18.40;48.46
49063;BME280;34876;51.464;-0.150;2023-02-18T01:23:40;102163.41;;;18.44;48.50
49063;BME280;34876;51.464;-0.150;2023-02-18T01:26:10;102159.32;;;18.13;49.42
49063;BME280;34876;51.464;-0.150;2023-02-18T01:28:40;102157.47;;;18.42;48.40
49063;BME280;34876;51.464;-0.150;2023-02-18T01:31:12;102153.67;;;18.25;49.11
49063;BME280;34876;51.464;-0.150;2023-02-18T01:33:41;102154.32;;;18.41;48.47
49063;BME280;34876;51.464;-0.150;2023-02-18T01:36:12;102146.85;;;17.98;49.68
49063;BME280;34876;51.464;-0.150;2023-02-18T01:38:41;102144.14;;;18.17;49.16
49063;BME280;34876;51.464;-0.150;2023-02-18T01:41:10;102147.64;;;18.29;48.89
49063;BME280;34876;51.464;-0.150;2023-02-18T01:43:39;102149.93;;;18.14;49.40
49063;BME280;34876;51.464;-0.150;2023-02-18T01:46:15;102147.87;;;18.41;48.87
49063;BME280;34876;51.464;-0.150;2023-02-18T01:48:48;102150.49;;;18.41;48.79
49063;BME280;34876;51.464;-0.150;2023-02-18T01:51:21;102146.60;;;18.13;51.66
49063;BME280;34876;51.464;-0.150;2023-02-18T01:53:55;102150.32;;;18.35;48.88
49063;BME280;34876;51.464;-0.150;2023-02-18T01:56:28;102154.65;;;18.42;48.73
49063;BME280;34876;51.464;-0.150;2023-02-18T01:59:02;102151.71;;;18.38;49.17
49063;BME280;34876;51.464;-0.150;2023-02-18T02:01:34;102148.50;;;18.46;49.00
49063;BME280;34876;51.464;-0.150;2023-02-18T02:04:03;102154.47;;;18.40;48.90
49063;BME280;34876;51.464;-0.150;2023-02-18T02:06:33;102154.66;;;18.51;48.52
49063;BME280;34876;51.464;-0.150;2023-02-18T02:09:05;102156.11;;;18.54;48.37
49063;BME280;34876;51.464;-0.150;2023-02-18T02:11:49;102160.15;;;18.47;48.87
49063;BME280;34876;51.464;-0.150;2023-02-18T02:14:33;102157.05;;;18.34;49.79
49063;BME280;34876;51.464;-0.150;2023-02-18T02:17:10;102155.69;;;18.43;49.39
49063;BME280;34876;51.464;-0.150;2023-02-18T02:20:05;102157.84;;;18.21;50.23
49063;BME280;34876;51.464;-0.150;2023-02-18T02:23:21;102152.14;;;18.37;50.07
49063;BME280;34876;51.464;-0.150;2023-02-18T02:26:14;102157.96;;;18.24;49.98
49063;BME280;34876;51.464;-0.150;2023-02-18T02:29:00;102159.37;;;18.16;48.06
49063;BME280;34876;51.464;-0.150;2023-02-18T02:31:46;102145.99;;;18.34;50.31
49063;BME280;34876;51.464;-0.150;2023-02-18T02:34:44;102144.36;;;18.29;50.06
49063;BME280;34876;51.464;-0.150;2023-02-18T02:37:17;102145.62;;;18.41;49.49
49063;BME280;34876;51.464;-0.150;2023-02-18T02:39:58;102131.28;;;18.23;50.24
49063;BME280;34876;51.464;-0.150;2023-02-18T02:42:39;102121.97;;;18.22;50.12
49063;BME280;34876;51.464;-0.150;2023-02-18T02:45:18;102138.51;;;16.61;51.84
49063;BME280;34876;51.464;-0.150;2023-02-18T02:47:55;102119.07;;;17.51;49.97
49063;BME280;34876;51.464;-0.150;2023-02-18T02:50:34;102118.89;;;17.96;48.75
49063;BME280;34876;51.464;-0.150;2023-02-18T02:53:12;102110.22;;;17.80;49.68
49063;BME280;34876;51.464;-0.150;2023-02-18T02:55:41;102106.17;;;17.39;50.81
49063;BME280;34876;51.464;-0.150;2023-02-18T02:58:14;102113.70;;;18.28;49.22
49063;BME280;34876;51.464;-0.150;2023-02-18T03:00:55;102115.82;;;18.40;49.23
49063;BME280;34876;51.464;-0.150;2023-02-18T03:03:42;102099.84;;;17.84;50.58
49063;BME280;34876;51.464;-0.150;2023-02-18T03:06:42;102089.65;;;17.05;48.09
49063;BME280;34876;51.464;-0.150;2023-02-18T03:09:20;102086.33;;;18.26;48.72
49063;BME280;34876;51.464;-0.150;2023-02-18T03:11:57;102080.84;;;18.31;48.48
49063;BME280;34876;51.464;-0.150;2023-02-18T03:14:30;102077.92;;;18.39;48.14
49063;BME280;34876;51.464;-0.150;2023-02-18T03:17:06;102080.24;;;18.47;47.83
49063;BME280;34876;51.464;-0.150;2023-02-18T03:19:44;102088.24;;;17.85;45.50
49063;BME280;34876;51.464;-0.150;2023-02-18T03:22:19;102082.78;;;18.33;48.06
49063;BME280;34876;51.464;-0.150;2023-02-18T03:24:51;102077.01;;;18.17;48.32
49063;BME280;34876;51.464;-0.150;2023-02-18T03:27:26;102070.12;;;18.17;48.71
49063;BME280;34876;51.464;-0.150;2023-02-18T03:29:58;102068.65;;;18.12;48.92
49063;BME280;34876;51.464;-0.150;2023-02-18T03:32:30;102066.68;;;18.17;48.53
49063;BME280;34876;51.464;-0.150;2023-02-18T03:35:05;102076.34;;;18.13;48.67
49063;BME280;34876;51.464;-0.150;2023-02-18T03:37:39;102076.31;;;18.24;48.48
49063;BME280;34876;51.464;-0.150;2023-02-18T03:40:10;102060.80;;;18.21;49.25
49063;BME280;34876;51.464;-0.150;2023-02-18T03:42:40;102059.08;;;18.41;48.67
49063;BME280;34876;51.464;-0.150;2023-02-18T03:45:09;102060.02;;;18.39;48.71
49063;BME280;34876;51.464;-0.150;2023-02-18T03:47:38;102051.07;;;18.45;48.49
49063;BME280;34876;51.464;-0.150;2023-02-18T03:50:07;102043.20;;;18.36;48.81
49063;BME280;34876;51.464;-0.150;2023-02-18T03:52:36;102040.54;;;18.37;48.53
49063;BME280;34876;51.464;-0.150;2023-02-18T03:55:06;102043.94;;;18.04;49.09
49063;BME280;34876;51.464;-0.150;2023-02-18T03:57:35;102044.74;;;18.27;48.90
49063;BME280;34876;51.464;-0.150;2023-02-18T04:00:05;102039.14;;;18.33;49.14
49063;BME280;34876;51.464;-0.150;2023-02-18T04:02:35;102039.82;;;18.38;48.78
49063;BME280;34876;51.464;-0.150;2023-02-18T04:05:04;102038.94;;;17.83;49.51
49063;BME280;34876;51.464;-0.150;2023-02-18T04:07:33;102034.29;;;18.39;48.80
49063;BME280;34876;51.464;-0.150;2023-02-18T04:10:03;102028.34;;;18.19;44.65
49063;BME280;34876;51.464;-0.150;2023-02-18T04:12:32;102019.85;;;17.93;47.19
49063;BME280;34876;51.464;-0.150;2023-02-18T04:15:02;102018.65;;;18.25;47.88
49063;BME280;34876;51.464;-0.150;2023-02-18T04:17:31;102030.12;;;18.43;47.97
49063;BME280;34876;51.464;-0.150;2023-02-18T04:20:00;102020.43;;;18.22;44.72
49063;BME280;34876;51.464;-0.150;2023-02-18T04:22:29;102019.68;;;18.34;48.17
49063;BME280;34876;51.464;-0.150;2023-02-18T04:24:58;102029.47;;;18.36;48.08
49063;BME280;34876;51.464;-0.150;2023-02-18T04:27:27;102029.86;;;18.46;48.09
49063;BME280;34876;51.464;-0.150;2023-02-18T04:29:56;102031.11;;;18.44;47.72
49063;BME280;34876;51.464;-0.150;2023-02-18T04:32:25;102030.19;;;18.38;48.04
49063;BME280;34876;51.464;-0.150;2023-02-18T04:34:53;102022.14;;;18.33;48.30
49063;BME280;34876;51.464;-0.150;2023-02-18T04:37:23;102025.50;;;18.45;47.67
49063;BME280;34876;51.464;-0.150;2023-02-18T04:39:52;102013.99;;;18.43;47.46
49063;BME280;34876;51.464;-0.150;2023-02-18T04:42:20;102023.40;;;18.09;48.83
49063;BME280;34876;51.464;-0.150;2023-02-18T04:44:49;102020.05;;;18.41;47.70
49063;BME280;34876;51.464;-0.150;2023-02-18T04:47:18;102023.55;;;18.25;48.13
49063;BME280;34876;51.464;-0.150;2023-02-18T04:49:47;102027.33;;;18.29;47.10
49063;BME280;34876;51.464;-0.150;2023-02-18T04:52:16;102026.79;;;18.26;48.20
49063;BME280;34876;51.464;-0.150;2023-02-18T04:54:45;102020.21;;;18.46;47.29
49063;BME280;34876;51.464;-0.150;2023-02-18T04:57:15;102013.27;;;18.47;47.16
49063;BME280;34876;51.464;-0.150;2023-02-18T04:59:44;102005.43;;;18.35;47.69
49063;BME280;34876;51.464;-0.150;2023-02-18T05:02:14;102011.81;;;18.03;47.37
49063;BME280;34876;51.464;-0.150;2023-02-18T05:04:42;102011.33;;;17.96;49.28
49063;BME280;34876;51.464;-0.150;2023-02-18T05:07:11;102011.38;;;18.11;48.76
49063;BME280;34876;51.464;-0.150;2023-02-18T05:09:41;102003.80;;;17.66;49.21
49063;BME280;34876;51.464;-0.150;2023-02-18T05:12:10;102007.40;;;17.37;50.48
49063;BME280;34876;51.464;-0.150;2023-02-18T05:14:39;102006.62;;;18.36;48.11
49063;BME280;34876;51.464;-0.150;2023-02-18T05:17:08;102007.13;;;17.58;49.74
49063;BME280;34876;51.464;-0.150;2023-02-18T05:19:37;102008.10;;;18.03;48.94
49063;BME280;34876;51.464;-0.150;2023-02-18T05:22:06;102004.52;;;18.38;47.99
49063;BME280;34876;51.464;-0.150;2023-02-18T05:24:35;102000.75;;;18.26;48.33
49063;BME280;34876;51.464;-0.150;2023-02-18T05:27:04;102003.39;;;17.55;46.49
49063;BME280;34876;51.464;-0.150;2023-02-18T05:29:33;102006.84;;;17.84;49.07
49063;BME280;34876;51.464;-0.150;2023-02-18T05:32:03;101999.21;;;17.76;46.15
49063;BME280;34876;51.464;-0.150;2023-02-18T05:34:32;102000.26;;;18.16;48.71
49063;BME280;34876;51.464;-0.150;2023-02-18T05:37:01;102006.91;;;18.38;48.12
49063;BME280;34876;51.464;-0.150;2023-02-18T05:39:30;102002.27;;;18.45;48.24
49063;BME280;34876;51.464;-0.150;2023-02-18T05:41:59;102006.77;;;18.16;46.64
49063;BME280;34876;51.464;-0.150;2023-02-18T05:44:28;101996.76;;;18.35;48.58
49063;BME280;34876;51.464;-0.150;2023-02-18T05:46:58;101998.78;;;18.30;49.66
49063;BME280;34876;51.464;-0.150;2023-02-18T05:49:28;101995.20;;;18.47;48.75
49063;BME280;34876;51.464;-0.150;2023-02-18T05:51:58;102011.51;;;17.83;50.15
49063;BME280;34876;51.464;-0.150;2023-02-18T05:54:27;102011.65;;;18.44;48.23
49063;BME280;34876;51.464;-0.150;2023-02-18T05:56:56;102011.41;;;18.39;48.43
49063;BME280;34876;51.464;-0.150;2023-02-18T05:59:25;102012.00;;;17.80;48.50
49063;BME280;34876;51.464;-0.150;2023-02-18T06:01:55;102009.88;;;18.25;48.91
49063;BME280;34876;51.464;-0.150;2023-02-18T06:04:24;102005.95;;;18.44;47.07
49063;BME280;34876;51.464;-0.150;2023-02-18T06:06:53;101998.73;;;18.12;49.33
49063;BME280;34876;51.464;-0.150;2023-02-18T06:09:23;101991.93;;;18.43;48.32
49063;BME280;34876;51.464;-0.150;2023-02-18T06:11:52;101988.77;;;18.31;48.84
49063;BME280;34876;51.464;-0.150;2023-02-18T06:14:21;101982.97;;;18.23;48.56
49063;BME280;34876;51.464;-0.150;2023-02-18T06:16:51;101986.94;;;18.21;48.69
49063;BME280;34876;51.464;-0.150;2023-02-18T06:19:19;101986.30;;;18.15;46.50
49063;BME280;34876;51.464;-0.150;2023-02-18T06:21:48;101986.25;;;18.31;49.06
49063;BME280;34876;51.464;-0.150;2023-02-18T06:24:17;101980.46;;;18.50;48.49
49063;BME280;34876;51.464;-0.150;2023-02-18T06:26:46;101980.32;;;18.48;49.14
49063;BME280;34876;51.464;-0.150;2023-02-18T06:29:15;101984.00;;;18.52;48.24
49063;BME280;34876;51.464;-0.150;2023-02-18T06:31:44;101982.39;;;18.57;48.07
49063;BME280;34876;51.464;-0.150;2023-02-18T06:34:14;101983.64;;;18.49;48.40
49063;BME280;34876;51.464;-0.150;2023-02-18T06:36:43;101989.65;;;18.52;47.72
49063;BME280;34876;51.464;-0.150;2023-02-18T06:39:11;101992.04;;;18.54;48.36
49063;BME280;34876;51.464;-0.150;2023-02-18T06:41:40;101985.90;;;18.31;48.86
49063;BME280;34876;51.464;-0.150;2023-02-18T06:44:09;101983.52;;;18.45;48.03
49063;BME280;34876;51.464;-0.150;2023-02-18T06:46:38;101975.74;;;18.54;48.31
49063;BME280;34876;51.464;-0.150;2023-02-18T06:49:07;101981.95;;;18.31;49.05
49063;BME280;34876;51.464;-0.150;2023-02-18T06:51:36;101980.30;;;18.27;49.14
49063;BME280;34876;51.464;-0.150;2023-02-18T06:54:05;101979.75;;;18.54;48.45
49063;BME280;34876;51.464;-0.150;2023-02-18T06:56:34;101978.91;;;17.76;49.74
49063;BME280;34876;51.464;-0.150;2023-02-18T06:59:04;101976.14;;;18.27;49.10
49063;BME280;34876;51.464;-0.150;2023-02-18T07:01:33;101976.30;;;18.43;48.66
49063;BME280;34876;51.464;-0.150;2023-02-18T07:04:02;101976.77;;;18.38;49.45
49063;BME280;34876;51.464;-0.150;2023-02-18T07:06:31;101977.38;;;18.36;49.51
49063;BME280;34876;51.464;-0.150;2023-02-18T07:08:59;101972.91;;;18.58;48.57
49063;BME280;34876;51.464;-0.150;2023-02-18T07:11:28;101969.34;;;18.54;49.14
49063;BME280;34876;51.464;-0.150;2023-02-18T07:13:58;101973.36;;;18.53;48.42
49063;BME280;34876;51.464;-0.150;2023-02-18T07:16:27;101971.24;;;18.43;48.47
49063;BME280;34876;51.464;-0.150;2023-02-18T07:18:57;101967.15;;;18.51;49.07
49063;BME280;34876;51.464;-0.150;2023-02-18T07:21:25;101979.41;;;17.58;50.02
49063;BME280;34876;51.464;-0.150;2023-02-18T07:23:54;101978.94;;;18.27;48.76
49063;BME280;34876;51.464;-0.150;2023-02-18T07:26:24;101980.63;;;17.77;49.47
49063;BME280;34876;51.464;-0.150;2023-02-18T07:28:53;101986.55;;;18.32;49.65
49063;BME280;34876;51.464;-0.150;2023-02-18T07:31:21;101989.41;;;18.52;48.77
49063;BME280;34876;51.464;-0.150;2023-02-18T07:33:50;101985.89;;;18.28;48.91
49063;BME280;34876;51.464;-0.150;2023-02-18T07:36:19;101980.39;;;18.52;48.79
49063;BME280;34876;51.464;-0.150;2023-02-18T07:38:48;101987.46;;;18.44;48.88
49063;BME280;34876;51.464;-0.150;2023-02-18T07:41:19;101989.56;;;18.40;48.37
49063;BME280;34876;51.464;-0.150;2023-02-18T07:43:49;101995.80;;;18.49;48.14
49063;BME280;34876;51.464;-0.150;2023-02-18T07:46:18;101995.89;;;18.57;48.32
49063;BME280;34876;51.464;-0.150;2023-02-18T07:48:49;101996.97;;;17.97;49.34
49063;BME280;34876;51.464;-0.150;2023-02-18T07:51:18;101994.15;;;18.54;48.09
49063;BME280;34876;51.464;-0.150;2023-02-18T07:53:47;101994.21;;;18.54;47.93
49063;BME280;34876;51.464;-0.150;2023-02-18T07:56:16;101999.90;;;18.42;49.22
49063;BME280;34876;51.464;-0.150;2023-02-18T07:58:45;102004.18;;;18.54;48.36
49063;BME280;34876;51.464;-0.150;2023-02-18T08:01:15;102012.83;;;18.57;47.89
49063;BME280;34876;51.464;-0.150;2023-02-18T08:03:44;102010.08;;;18.55;48.48
49063;BME280;34876;51.464;-0.150;2023-02-18T08:06:20;102010.57;;;18.45;48.60
49063;BME280;34876;51.464;-0.150;2023-02-18T08:08:50;102018.67;;;17.99;46.92
49063;BME280;34876;51.464;-0.150;2023-02-18T08:11:18;102010.56;;;18.42;48.19
49063;BME280;34876;51.464;-0.150;2023-02-18T08:13:47;102020.05;;;18.36;48.41
49063;BME280;34876;51.464;-0.150;2023-02-18T08:16:19;102008.64;;;18.39;46.59
49063;BME280;34876;51.464;-0.150;2023-02-18T08:18:48;102011.92;;;18.43;47.51
49063;BME280;34876;51.464;-0.150;2023-02-18T08:21:19;102005.94;;;18.55;47.73
49063;BME280;34876;51.464;-0.150;2023-02-18T08:23:49;101999.90;;;18.49;47.90
49063;BME280;34876;51.464;-0.150;2023-02-18T08:26:19;102004.28;;;18.59;47.91
49063;BME280;34876;51.464;-0.150;2023-02-18T08:28:48;102003.11;;;18.56;47.99
49063;BME280;34876;51.464;-0.150;2023-02-18T08:31:19;102003.58;;;18.55;47.83
49063;BME280;34876;51.464;-0.150;2023-02-18T08:33:49;102017.83;;;18.45;47.84
49063;BME280;34876;51.464;-0.150;2023-02-18T08:36:18;102017.07;;;18.45;48.67
49063;BME280;34876;51.464;-0.150;2023-02-18T08:38:47;102020.78;;;18.58;47.97
49063;BME280;34876;51.464;-0.150;2023-02-18T08:41:17;102024.49;;;18.44;48.73
49063;BME280;34876;51.464;-0.150;2023-02-18T08:43:46;102029.18;;;18.55;48.38
49063;BME280;34876;51.464;-0.150;2023-02-18T08:46:16;102037.02;;;18.63;47.84
49063;BME280;34876;51.464;-0.150;2023-02-18T08:48:46;102040.56;;;18.30;49.22
49063;BME280;34876;51.464;-0.150;2023-02-18T08:51:18;102036.92;;;18.53;48.16
49063;BME280;34876;51.464;-0.150;2023-02-18T08:53:47;102039.22;;;18.49;49.12
49063;BME280;34876;51.464;-0.150;2023-02-18T08:56:18;102043.07;;;18.63;47.78
49063;BME280;34876;51.464;-0.150;2023-02-18T08:58:47;102042.02;;;18.55;48.43
49063;BME280;34876;51.464;-0.150;2023-02-18T09:01:16;102046.88;;;18.52;47.98
49063;BME280;34876;51.464;-0.150;2023-02-18T09:03:45;102039.14;;;18.67;47.67
49063;BME280;34876;51.464;-0.150;2023-02-18T09:06:14;102041.13;;;18.69;47.48
49063;BME280;34876;51.464;-0.150;2023-02-18T09:08:43;102042.39;;;18.71;47.20
49063;BME280;34876;51.464;-0.150;2023-02-18T09:11:12;102048.33;;;18.46;48.07
49063;BME280;34876;51.464;-0.150;2023-02-18T09:13:40;102049.36;;;18.31;48.25
49063;BME280;34876;51.464;-0.150;2023-02-18T09:16:11;102054.33;;;18.66;47.81
49063;BME280;34876;51.464;-0.150;2023-02-18T09:18:41;102048.52;;;18.49;47.51
49063;BME280;34876;51.464;-0.150;2023-02-18T09:21:13;102055.34;;;18.54;49.05
49063;BME280;34876;51.464;-0.150;2023-02-18T09:23:42;102048.75;;;18.53;48.50
49063;BME280;34876;51.464;-0.150;2023-02-18T09:26:15;102038.76;;;18.71;48.00
49063;BME280;34876;51.464;-0.150;2023-02-18T09:28:45;102052.70;;;18.63;49.10
49063;BME280;34876;51.464;-0.150;2023-02-18T09:31:16;102056.30;;;18.68;48.05
49063;BME280;34876;51.464;-0.150;2023-02-18T09:33:50;102061.01;;;18.63;47.49
49063;BME280;34876;51.464;-0.150;2023-02-18T09:36:19;102071.10;;;18.39;48.98
49063;BME280;34876;51.464;-0.150;2023-02-18T09:38:49;102069.88;;;18.62;48.14
49063;BME280;34876;51.464;-0.150;2023-02-18T09:41:29;102075.61;;;18.70;48.98
49063;BME280;34876;51.464;-0.150;2023-02-18T09:44:01;102079.64;;;18.70;49.18
49063;BME280;34876;51.464;-0.150;2023-02-18T09:46:34;102078.62;;;18.59;49.23
49063;BME280;34876;51.464;-0.150;2023-02-18T09:49:10;102087.46;;;18.69;48.35
49063;BME280;34876;51.464;-0.150;2023-02-18T09:51:42;102088.31;;;18.48;49.31
49063;BME280;34876;51.464;-0.150;2023-02-18T09:54:13;102092.00;;;18.75;47.67
49063;BME280;34876;51.464;-0.150;2023-02-18T09:56:43;102084.21;;;18.58;47.93
49063;BME280;34876;51.464;-0.150;2023-02-18T09:59:18;102086.67;;;18.49;49.71
49063;BME280;34876;51.464;-0.150;2023-02-18T10:01:50;102083.68;;;18.43;48.90
49063;BME280;34876;51.464;-0.150;2023-02-18T10:04:22;102084.74;;;18.70;49.00
49063;BME280;34876;51.464;-0.150;2023-02-18T10:06:53;102082.08;;;18.75;47.57
49063;BME280;34876;51.464;-0.150;2023-02-18T10:09:29;102081.71;;;18.40;49.34
49063;BME280;34876;51.464;-0.150;2023-02-18T10:12:06;102083.83;;;18.77;48.38
49063;BME280;34876;51.464;-0.150;2023-02-18T10:14:40;102077.37;;;18.63;48.79
49063;BME280;34876;51.464;-0.150;2023-02-18T10:17:13;102077.12;;;18.82;48.06
49063;BME280;34876;51.464;-0.150;2023-02-18T10:19:47;102084.91;;;18.36;49.96
49063;BME280;34876;51.464;-0.150;2023-02-18T10:22:17;102076.47;;;18.21;50.18
49063;BME280;34876;51.464;-0.150;2023-02-18T10:24:50;102070.36;;;18.66;48.93
49063;BME280;34876;51.464;-0.150;2023-02-18T10:27:27;102071.75;;;18.70;49.19
49063;BME280;34876;51.464;-0.150;2023-02-18T10:30:03;102073.47;;;18.86;48.25
49063;BME280;34876;51.464;-0.150;2023-02-18T10:32:37;102082.63;;;18.83;48.37
49063;BME280;34876;51.464;-0.150;2023-02-18T10:35:16;102082.89;;;18.64;48.34
49063;BME280;34876;51.464;-0.150;2023-02-18T10:37:56;102088.68;;;18.69;48.75
49063;BME280;34876;51.464;-0.150;2023-02-18T10:40:34;102099.11;;;18.71;48.03
49063;BME280;34876;51.464;-0.150;2023-02-18T10:43:11;102099.92;;;18.53;48.49
49063;BME280;34876;51.464;-0.150;2023-02-18T10:45:52;102108.90;;;18.49;49.06
49063;BME280;34876;51.464;-0.150;2023-02-18T10:48:34;102100.32;;;18.81;47.86
49063;BME280;34876;51.464;-0.150;2023-02-18T10:51:14;102099.77;;;18.19;49.34
49063;BME280;34876;51.464;-0.150;2023-02-18T10:53:45;102096.47;;;18.57;48.72
49063;BME280;34876;51.464;-0.150;2023-02-18T10:56:33;102093.03;;;18.81;48.29
49063;BME280;34876;51.464;-0.150;2023-02-18T10:59:10;102100.96;;;18.74;48.83
49063;BME280;34876;51.464;-0.150;2023-02-18T11:01:41;102106.41;;;17.75;51.01
49063;BME280;34876;51.464;-0.150;2023-02-18T11:04:14;102108.89;;;17.07;52.47
49063;BME280;34876;51.464;-0.150;2023-02-18T11:06:45;102111.48;;;18.05;50.22
49063;BME280;34876;51.464;-0.150;2023-02-18T11:09:29;102120.08;;;18.69;48.81
49063;BME280;34876;51.464;-0.150;2023-02-18T11:12:02;102122.53;;;18.66;48.28
49063;BME280;34876;51.464;-0.150;2023-02-18T11:14:37;102121.06;;;18.14;49.49
49063;BME280;34876;51.464;-0.150;2023-02-18T11:17:17;102115.70;;;18.75;48.54
49063;BME280;34876;51.464;-0.150;2023-02-18T11:19:55;102111.65;;;18.73;48.49
49063;BME280;34876;51.464;-0.150;2023-02-18T11:22:28;102109.00;;;18.67;49.05
49063;BME280;34876;51.464;-0.150;2023-02-18T11:24:59;102114.88;;;18.81;48.65
49063;BME280;34876;51.464;-0.150;2023-02-18T11:27:33;102114.77;;;18.81;48.01
49063;BME280;34876;51.464;-0.150;2023-02-18T11:30:14;102111.80;;;18.75;48.41
49063;BME280;34876;51.464;-0.150;2023-02-18T11:32:48;102115.53;;;18.87;48.09
49063;BME280;34876;51.464;-0.150;2023-02-18T11:35:19;102114.23;;;18.82;48.52
49063;BME280;34876;51.464;-0.150;2023-02-18T11:37:49;102115.41;;;18.85;47.87
49063;BME280;34876;51.464;-0.150;2023-02-18T11:40:22;102117.50;;;18.81;49.25
49063;BME280;34876;51.464;-0.150;2023-02-18T11:42:53;102110.41;;;18.87;48.20
49063;BME280;34876;51.464;-0.150;2023-02-18T11:45:32;102118.60;;;18.65;48.73
49063;BME280;34876;51.464;-0.150;2023-02-18T11:48:08;102117.55;;;18.58;48.77
49063;BME280;34876;51.464;-0.150;2023-02-18T11:50:43;102118.24;;;18.54;49.57
49063;BME280;34876;51.464;-0.150;2023-02-18T11:53:26;102109.76;;;18.82;48.71
49063;BME280;34876;51.464;-0.150;2023-02-18T11:55:58;102105.87;;;18.76;48.64
49063;BME280;34876;51.464;-0.150;2023-02-18T11:58:37;102100.16;;;18.73;49.07
49063;BME280;34876;51.464;-0.150;2023-02-18T12:01:14;102095.82;;;18.84;48.27
49063;BME280;34876;51.464;-0.150;2023-02-18T12:03:48;102100.01;;;18.75;48.80
49063;BME280;34876;51.464;-0.150;2023-02-18T12:06:25;102095.41;;;18.83;48.13
49063;BME280;34876;51.464;-0.150;2023-02-18T12:08:58;102097.08;;;18.88;48.00
49063;BME280;34876;51.464;-0.150;2023-02-18T12:11:32;102098.05;;;18.89;47.79
49063;BME280;34876;51.464;-0.150;2023-02-18T12:14:02;102096.80;;;18.63;49.32
49063;BME280;34876;51.464;-0.150;2023-02-18T12:16:37;102093.98;;;18.84;47.86
49063;BME280;34876;51.464;-0.150;2023-02-18T12:19:19;102096.38;;;18.86;47.78
49063;BME280;34876;51.464;-0.150;2023-02-18T12:21:58;102092.88;;;18.88;47.60
49063;BME280;34876;51.464;-0.150;2023-02-18T12:25:00;102095.61;;;18.81;48.17
49063;BME280;34876;51.464;-0.150;2023-02-18T12:27:36;102091.55;;;18.72;48.58
49063;BME280;34876;51.464;-0.150;2023-02-18T12:30:25;102090.74;;;18.41;49.30
49063;BME280;34876;51.464;-0.150;2023-02-18T12:33:02;102090.54;;;18.48;48.95
49063;BME280;34876;51.464;-0.150;2023-02-18T12:35:48;102086.45;;;18.72;48.56
49063;BME280;34876;51.464;-0.150;2023-02-18T12:38:58;102083.01;;;18.80;48.28
49063;BME280;34876;51.464;-0.150;2023-02-18T12:41:41;102085.72;;;18.55;48.54
49063;BME280;34876;51.464;-0.150;2023-02-18T12:44:29;102079.26;;;18.66;48.60
49063;BME280;34876;51.464;-0.150;2023-02-18T12:47:12;102077.96;;;18.81;47.92
49063;BME280;34876;51.464;-0.150;2023-02-18T12:50:12;102080.21;;;18.81;47.97
49063;BME280;34876;51.464;-0.150;2023-02-18T12:52:50;102085.09;;;18.65;49.41
49063;BME280;34876;51.464;-0.150;2023-02-18T12:55:34;102086.67;;;18.55;48.99
49063;BME280;34876;51.464;-0.150;2023-02-18T12:58:18;102085.70;;;18.82;47.79
49063;BME280;34876;51.464;-0.150;2023-02-18T13:01:03;102087.20;;;18.83;48.06
49063;BME280;34876;51.464;-0.150;2023-02-18T13:04:24;102082.35;;;18.86;47.86
49063;BME280;34876;51.464;-0.150;2023-02-18T13:07:17;102081.44;;;18.63;48.76
49063;BME280;34876;51.464;-0.150;2023-02-18T13:10:00;102079.06;;;18.85;47.74